createdAt,value
2022-12-14T00:00:49.803Z,-1008.72
2022-12-14T00:01:53.467Z,-1008.94
2022-12-14T00:02:56.671Z,-694.91
2022-12-14T00:03:59.833Z,-694.78
2022-12-14T00:05:03.076Z,-1008.88
2022-12-14T00:06:11.115Z,-1636.97
2022-12-14T00:07:14.355Z,-1322.91
2022-12-14T00:08:18.557Z,-1322.88
2022-12-14T00:09:21.681Z,-1322.84
2022-12-14T00:10:25.161Z,-1008.97
2022-12-14T00:11:29.128Z,-1009.09
2022-12-14T00:12:32.367Z,-1637.59
2022-12-14T00:13:36.207Z,-2580.38
2022-12-14T00:14:40.292Z,-2894.78
2022-12-14T00:15:43.463Z,-2894.38
2022-12-14T00:16:46.772Z,-3837.13
2022-12-14T00:17:49.893Z,-4466.56
2022-12-14T00:18:55.176Z,-4151.97
2022-12-14T00:19:58.536Z,-3837.66
2022-12-14T00:21:09.825Z,-3837.25
2022-12-14T00:22:13.180Z,-2894.72
2022-12-14T00:23:16.422Z,-3209.16
2022-12-14T00:24:19.784Z,-2894.69
2022-12-14T00:25:23.749Z,-2894.84
2022-12-14T00:26:32.516Z,-3522.81
2022-12-14T00:27:36.109Z,-2580.66
2022-12-14T00:28:39.233Z,-2580.75
2022-12-14T00:29:42.356Z,-2580.75
2022-12-14T00:30:45.297Z,-3209.13
2022-12-14T00:31:49.840Z,-3208.78
2022-12-14T00:32:52.677Z,-2894.47
2022-12-14T00:33:55.624Z,-2580.41
2022-12-14T00:34:58.323Z,-2266.25
2022-12-14T00:36:01.961Z,-1952.16
2022-12-14T00:37:05.047Z,-1637.88
2022-12-14T00:38:07.808Z,-1637.81
2022-12-14T00:39:10.689Z,-1323.81
2022-12-14T00:40:13.380Z,-1009.59
2022-12-14T00:41:16.096Z,-695.53
2022-12-14T00:42:18.661Z,-381.56
2022-12-14T00:43:22.454Z,-381.41
2022-12-14T00:44:25.097Z,246.63
2022-12-14T00:45:27.788Z,-67.34
2022-12-14T00:46:30.430Z,-67.44
2022-12-14T00:47:37.519Z,-67.38
2022-12-14T00:48:43.225Z,-67.34
2022-12-14T00:49:45.789Z,246.84
2022-12-14T00:50:53.107Z,-67.53
2022-12-14T00:51:55.632Z,-67.41
2022-12-14T00:52:58.151Z,246.59
2022-12-14T00:54:00.642Z,246.56
2022-12-14T00:55:03.514Z,246.50
2022-12-14T00:56:07.756Z,246.50
2022-12-14T00:57:10.513Z,-67.63
2022-12-14T00:58:15.194Z,-67.59
2022-12-14T00:59:22.880Z,-1324.25
2022-12-14T01:00:28.123Z,-1010.25
2022-12-14T01:01:30.706Z,-695.91
2022-12-14T01:02:33.500Z,-67.53
2022-12-14T01:03:36.249Z,-67.66
2022-12-14T01:04:38.719Z,874.56
2022-12-14T01:05:41.600Z,1816.47
2022-12-14T01:06:49.289Z,2444.38
2022-12-14T01:07:51.918Z,3072.19
2022-12-14T01:08:54.417Z,4013.84
2022-12-14T01:09:56.841Z,4641.75
2022-12-14T01:10:59.240Z,4641.72
2022-12-14T01:12:01.884Z,4955.75
2022-12-14T01:13:04.524Z,4955.75
2022-12-14T01:14:08.003Z,4955.81
2022-12-14T01:15:10.894Z,4641.81
2022-12-14T01:16:14.998Z,4328.00
2022-12-14T01:17:17.608Z,4955.81
2022-12-14T01:18:20.133Z,4955.81
2022-12-14T01:19:22.647Z,5269.72
2022-12-14T01:20:25.167Z,5897.50
2022-12-14T01:21:27.930Z,6839.16
2022-12-14T01:22:30.569Z,7152.59
2022-12-14T01:23:33.095Z,8094.72
2022-12-14T01:24:35.617Z,8408.63
2022-12-14T01:25:38.131Z,9036.38
2022-12-14T01:26:40.907Z,8409.06
2022-12-14T01:27:43.425Z,8409.06
2022-12-14T01:28:47.373Z,8409.16
2022-12-14T01:29:49.894Z,8723.03
2022-12-14T01:30:52.460Z,8722.94
2022-12-14T01:31:54.937Z,8723.03
2022-12-14T01:32:57.459Z,8723.16
2022-12-14T01:33:59.979Z,8723.00
2022-12-14T01:35:02.499Z,9036.91
2022-12-14T01:36:16.547Z,9036.91
2022-12-14T01:37:19.063Z,9978.50
2022-12-14T01:38:21.585Z,10292.53
2022-12-14T01:39:24.107Z,9351.19
2022-12-14T01:40:26.634Z,8410.16
2022-12-14T01:41:38.035Z,6840.34
2022-12-14T01:42:40.558Z,5584.56
2022-12-14T01:43:53.515Z,4328.63
2022-12-14T01:44:58.083Z,3700.59
2022-12-14T01:46:00.597Z,4014.59
2022-12-14T01:47:12.834Z,3072.47
2022-12-14T01:48:15.724Z,3700.53
2022-12-14T01:49:25.802Z,4014.44
2022-12-14T01:50:37.930Z,4328.31
2022-12-14T01:51:45.969Z,4642.22
2022-12-14T01:52:51.848Z,5269.81
2022-12-14T01:53:56.409Z,5269.91
2022-12-14T01:55:05.058Z,5897.59
2022-12-14T01:56:08.057Z,6525.38
2022-12-14T01:57:12.375Z,7153.03
2022-12-14T01:58:18.739Z,7780.50
2022-12-14T01:59:31.582Z,8722.34
2022-12-14T02:00:34.586Z,8722.63
2022-12-14T02:01:37.890Z,8408.88
2022-12-14T02:02:49.187Z,7467.56
2022-12-14T02:03:53.669Z,8095.09
2022-12-14T02:05:02.794Z,6839.84
2022-12-14T02:06:20.550Z,6839.91
2022-12-14T02:07:25.351Z,6839.63
2022-12-14T02:08:29.316Z,6526.00
2022-12-14T02:09:40.721Z,4642.63
2022-12-14T02:10:45.520Z,4014.59
2022-12-14T02:12:14.438Z,3700.53
2022-12-14T02:13:28.871Z,3700.47
2022-12-14T02:14:32.564Z,4642.34
2022-12-14T02:15:37.611Z,4956.38
2022-12-14T02:16:41.809Z,4642.28
2022-12-14T02:17:47.567Z,4642.22
2022-12-14T02:18:50.692Z,5270.09
2022-12-14T02:19:54.052Z,5270.16
2022-12-14T02:21:06.893Z,4642.09
2022-12-14T02:22:27.896Z,4328.16
2022-12-14T02:24:15.062Z,3700.41
2022-12-14T02:25:49.374Z,4642.19
2022-12-14T02:27:14.225Z,5269.88
2022-12-14T02:28:20.347Z,5897.53
2022-12-14T02:29:41.228Z,6839.00
2022-12-14T02:30:56.743Z,7466.56
2022-12-14T02:32:21.072Z,8094.28
2022-12-14T02:33:42.315Z,9035.81
2022-12-14T02:35:04.638Z,9663.06
2022-12-14T02:36:30.322Z,10604.75
2022-12-14T02:37:33.081Z,9978.00
2022-12-14T02:39:02.845Z,9664.16
2022-12-14T02:40:14.182Z,8408.56
2022-12-14T02:41:26.131Z,8094.56
2022-12-14T02:42:40.771Z,9663.00
2022-12-14T02:44:07.294Z,10603.59
2022-12-14T02:45:18.455Z,11857.56
2022-12-14T02:46:36.639Z,13425.91
2022-12-14T02:47:46.111Z,14367.06
2022-12-14T02:48:58.108Z,15307.75
2022-12-14T02:50:09.702Z,16562.75
2022-12-14T02:51:18.632Z,15622.44
2022-12-14T02:52:45.277Z,16250.88
2022-12-14T02:54:12.154Z,17192.91
2022-12-14T02:55:31.912Z,17820.22
2022-12-14T02:56:39.997Z,18761.94
2022-12-14T02:58:23.036Z,19703.13
2022-12-14T02:59:26.795Z,21586.56
2022-12-14T03:00:33.587Z,23155.81
2022-12-14T03:01:38.836Z,23784.06
2022-12-14T03:02:44.658Z,23155.44
2022-12-14T03:03:47.408Z,21272.94
2022-12-14T03:04:51.158Z,20331.13
2022-12-14T03:06:14.929Z,19389.22
2022-12-14T03:07:40.569Z,18447.09
2022-12-14T03:08:47.083Z,18446.81
2022-12-14T03:09:49.578Z,17190.81
2022-12-14T03:10:58.017Z,15622.34
2022-12-14T03:12:12.165Z,14054.75
2022-12-14T03:13:35.808Z,12486.44
2022-12-14T03:14:48.164Z,11858.97
2022-12-14T03:16:00.575Z,11230.84
2022-12-14T03:17:19.779Z,11543.44
2022-12-14T03:18:26.207Z,12483.75
2022-12-14T03:19:43.367Z,13110.66
2022-12-14T03:20:50.810Z,14051.47
2022-12-14T03:22:08.449Z,15305.38
2022-12-14T03:23:22.863Z,16560.28
2022-12-14T03:24:43.859Z,17814.69
2022-12-14T03:25:58.732Z,18756.34
2022-12-14T03:27:35.106Z,19383.69
2022-12-14T03:28:45.793Z,20325.59
2022-12-14T03:29:50.455Z,20953.13
2022-12-14T03:31:36.447Z,22208.34
2022-12-14T03:32:47.577Z,23463.25
2022-12-14T03:33:53.938Z,24404.69
2022-12-14T03:34:59.216Z,25345.94
2022-12-14T03:36:26.106Z,25661.19
2022-12-14T03:37:54.787Z,25975.47
2022-12-14T03:39:00.561Z,26603.91
2022-12-14T03:40:03.663Z,27545.31
2022-12-14T03:41:40.386Z,27545.09
2022-12-14T03:42:56.590Z,28173.81
2022-12-14T03:44:32.473Z,28487.78
2022-12-14T03:45:47.494Z,29115.69
2022-12-14T03:47:09.083Z,29429.66
2022-12-14T03:48:26.722Z,29744.56
2022-12-14T03:49:53.480Z,30059.47
2022-12-14T03:51:07.885Z,30374.41
2022-12-14T03:52:24.926Z,30688.88
2022-12-14T03:53:41.965Z,31630.97
2022-12-14T03:55:03.208Z,32572.84
2022-12-14T03:56:34.292Z,33200.97
2022-12-14T03:57:40.057Z,33830.66
2022-12-14T03:58:53.822Z,34145.53
2022-12-14T04:00:09.936Z,33830.38
2022-12-14T04:01:35.289Z,34146.59
2022-12-14T04:02:41.030Z,34774.81
2022-12-14T04:03:52.067Z,34147.66
2022-12-14T04:04:59.630Z,34459.88
2022-12-14T04:06:34.429Z,34460.69
2022-12-14T04:07:49.188Z,33519.16
2022-12-14T04:09:12.959Z,32262.81
2022-12-14T04:10:41.034Z,31319.13
2022-12-14T04:12:11.277Z,30377.22
2022-12-14T04:13:38.758Z,30375.34
2022-12-14T04:15:10.441Z,30374.88
2022-12-14T04:16:36.743Z,31001.97
2022-12-14T04:18:01.566Z,31313.81
2022-12-14T04:19:10.567Z,31941.81
2022-12-14T04:20:23.413Z,31941.56
2022-12-14T04:21:38.291Z,32255.56
2022-12-14T04:22:50.296Z,31627.06
2022-12-14T04:24:17.775Z,30371.59
2022-12-14T04:25:46.580Z,30684.41
2022-12-14T04:26:55.941Z,29427.19
2022-12-14T04:28:30.505Z,29740.44
2022-12-14T04:29:54.625Z,29425.16
2022-12-14T04:31:03.627Z,29738.63
2022-12-14T04:32:24.432Z,29111.47
2022-12-14T04:33:46.967Z,29111.91
2022-12-14T04:34:55.954Z,27856.91
2022-12-14T04:36:03.998Z,26914.97
2022-12-14T04:37:15.758Z,24406.69
2022-12-14T04:38:34.840Z,23778.91
2022-12-14T04:39:44.921Z,21894.97
2022-12-14T04:40:56.223Z,20953.13
2022-12-14T04:42:02.571Z,20638.06
2022-12-14T04:43:17.325Z,20950.94
2022-12-14T04:44:29.931Z,21263.50
2022-12-14T04:45:41.595Z,21263.97
2022-12-14T04:46:46.971Z,20635.94
2022-12-14T04:47:57.895Z,19382.28
2022-12-14T04:49:24.236Z,19381.16
2022-12-14T04:50:35.149Z,19693.47
2022-12-14T04:51:49.860Z,19693.91
2022-12-14T04:52:59.824Z,19066.69
2022-12-14T04:54:11.945Z,17813.53
2022-12-14T04:55:22.319Z,16559.34
2022-12-14T04:56:40.077Z,16245.56
2022-12-14T04:57:55.793Z,16557.91
2022-12-14T04:58:58.916Z,17184.91
2022-12-14T05:00:02.154Z,17498.78
2022-12-14T05:01:23.332Z,17811.88
2022-12-14T05:02:53.558Z,16871.16
2022-12-14T05:04:24.604Z,17185.41
2022-12-14T05:05:34.559Z,18125.88
2022-12-14T05:06:52.044Z,18752.25
2022-12-14T05:08:17.759Z,19380.31
2022-12-14T05:09:45.842Z,18752.53
2022-12-14T05:11:21.838Z,18752.25
2022-12-14T05:12:32.888Z,19065.72
2022-12-14T05:13:48.892Z,18125.34
2022-12-14T05:15:09.364Z,18752.25
2022-12-14T05:16:15.536Z,20007.22
2022-12-14T05:17:18.899Z,19066.56
2022-12-14T05:18:22.449Z,17813.16
2022-12-14T05:19:26.827Z,16559.81
2022-12-14T05:20:29.770Z,16872.13
2022-12-14T05:21:47.534Z,17498.38
2022-12-14T05:22:50.780Z,17497.88
2022-12-14T05:23:53.532Z,18437.88
2022-12-14T05:24:56.053Z,18752.25
2022-12-14T05:25:58.581Z,19379.88
2022-12-14T05:27:01.226Z,19379.44
2022-12-14T05:28:03.990Z,19693.19
2022-12-14T05:29:06.494Z,20006.78
2022-12-14T05:30:09.870Z,20319.47
2022-12-14T05:31:12.778Z,21260.03
2022-12-14T05:32:15.378Z,21573.75
2022-12-14T05:33:20.175Z,21887.19
2022-12-14T05:34:23.181Z,23141.09
2022-12-14T05:35:25.699Z,24394.94
2022-12-14T05:36:28.230Z,25650.13
2022-12-14T05:37:30.861Z,26277.84
2022-12-14T05:38:33.273Z,26904.94
2022-12-14T05:39:35.783Z,27846.50
2022-12-14T05:40:38.302Z,28160.91
2022-12-14T05:41:40.943Z,28474.28
2022-12-14T05:42:46.116Z,29416.13
2022-12-14T05:43:51.146Z,29728.13
2022-12-14T05:44:53.672Z,29729.50
2022-12-14T05:46:00.800Z,27847.56
2022-12-14T05:47:03.519Z,26280.81
2022-12-14T05:48:06.273Z,25653.03
2022-12-14T05:49:09.034Z,25339.22
2022-12-14T05:50:11.919Z,24710.94
2022-12-14T05:51:14.677Z,24398.06
2022-12-14T05:52:18.405Z,24083.41
2022-12-14T05:53:21.640Z,23457.47
2022-12-14T05:54:24.310Z,22828.91
2022-12-14T05:55:26.925Z,23455.88
2022-12-14T05:56:29.448Z,24395.88
2022-12-14T05:57:32.462Z,25336.75
2022-12-14T05:58:35.571Z,26277.03
2022-12-14T05:59:38.211Z,27219.56
2022-12-14T06:00:41.215Z,27846.28
2022-12-14T06:01:45.372Z,29101.44
2022-12-14T06:02:51.912Z,30669.53
2022-12-14T06:03:55.021Z,32239.38
2022-12-14T06:04:57.903Z,33496.03
2022-12-14T06:06:05.593Z,34438.47
2022-12-14T06:07:11.706Z,35695.97
2022-12-14T06:08:14.705Z,36953.72
2022-12-14T06:09:18.809Z,37895.91
2022-12-14T06:10:21.818Z,39152.75
2022-12-14T06:11:25.874Z,40410.34
2022-12-14T06:12:28.992Z,41668.44
2022-12-14T06:13:32.113Z,42296.56
2022-12-14T06:14:35.482Z,43241.50
2022-12-14T06:15:38.629Z,44185.22
2022-12-14T06:16:43.402Z,44815.25
2022-12-14T06:17:47.724Z,44815.63
2022-12-14T06:18:53.605Z,44815.63
2022-12-14T06:19:56.730Z,45760.59
2022-12-14T06:21:00.149Z,46075.88
2022-12-14T06:22:03.213Z,46705.75
2022-12-14T06:23:06.330Z,47020.31
2022-12-14T06:24:11.615Z,47020.69
2022-12-14T06:25:15.097Z,47336.78
2022-12-14T06:26:18.694Z,48280.66
2022-12-14T06:27:21.817Z,48910.75
2022-12-14T06:28:25.176Z,49538.88
2022-12-14T06:29:28.418Z,50168.25
2022-12-14T06:30:31.782Z,50799.66
2022-12-14T06:31:35.384Z,52057.81
2022-12-14T06:32:38.627Z,53003.38
2022-12-14T06:33:41.747Z,53320.31
2022-12-14T06:34:47.148Z,53634.69
2022-12-14T06:35:50.629Z,54894.47
2022-12-14T06:36:54.112Z,55841.78
2022-12-14T06:37:57.354Z,55527.31
2022-12-14T06:39:18.358Z,55214.66
2022-12-14T06:40:21.597Z,56158.94
2022-12-14T06:41:25.198Z,56474.78
2022-12-14T06:42:29.082Z,56787.88
2022-12-14T06:43:34.575Z,56790.63
2022-12-14T06:44:38.084Z,57105.59
2022-12-14T06:45:41.923Z,55532.66
2022-12-14T06:46:45.439Z,53643.72
2022-12-14T06:47:50.807Z,49551.94
2022-12-14T06:48:56.855Z,44520.53
2022-12-14T06:50:00.432Z,40746.19
2022-12-14T06:51:05.500Z,38856.75
2022-12-14T06:52:09.280Z,37595.47
2022-12-14T06:53:14.473Z,34139.94
2022-12-14T06:54:19.253Z,32568.56
2022-12-14T06:55:26.966Z,31622.69
2022-12-14T06:56:30.783Z,31620.97
2022-12-14T06:57:34.404Z,30678.97
2022-12-14T06:58:38.477Z,28795.56
2022-12-14T06:59:42.151Z,27539.84
2022-12-14T07:00:45.601Z,25971.16
2022-12-14T07:01:50.281Z,25655.94
2022-12-14T07:02:54.273Z,24714.66
2022-12-14T07:04:01.145Z,24713.53
2022-12-14T07:05:05.126Z,24711.66
2022-12-14T07:06:09.932Z,25023.56
2022-12-14T07:07:13.868Z,25650.50
2022-12-14T07:08:16.609Z,26590.78
2022-12-14T07:09:20.845Z,26590.78
2022-12-14T07:10:24.222Z,27218.09
2022-12-14T07:11:28.881Z,26277.44
2022-12-14T07:12:32.853Z,26276.22
2022-12-14T07:13:35.878Z,25023.19
2022-12-14T07:14:38.725Z,23768.38
2022-12-14T07:15:41.301Z,23140.56
2022-12-14T07:16:48.264Z,21260.19
2022-12-14T07:17:51.570Z,20320.66
2022-12-14T07:18:55.170Z,19379.72
2022-12-14T07:19:57.931Z,18439.34
2022-12-14T07:21:07.048Z,17183.81
2022-12-14T07:22:10.049Z,17497.25
2022-12-14T07:23:12.942Z,17498.38
2022-12-14T07:24:15.930Z,17184.16
2022-12-14T07:25:18.710Z,16558.63
2022-12-14T07:26:26.835Z,15304.31
2022-12-14T07:27:29.838Z,16245.44
2022-12-14T07:28:33.108Z,15618.50
2022-12-14T07:29:35.619Z,14992.03
2022-12-14T07:30:38.136Z,14365.66
2022-12-14T07:31:40.859Z,14052.53
2022-12-14T07:32:43.414Z,14679.97
2022-12-14T07:33:46.302Z,14679.97
2022-12-14T07:34:48.936Z,14994.00
2022-12-14T07:35:51.474Z,14680.28
2022-12-14T07:36:54.225Z,14993.50
2022-12-14T07:37:56.739Z,15934.72
2022-12-14T07:38:59.260Z,17188.84
2022-12-14T07:40:01.787Z,18443.22
2022-12-14T07:41:10.784Z,19069.19
2022-12-14T07:42:13.181Z,21265.06
2022-12-14T07:43:22.430Z,22832.31
2022-12-14T07:44:24.950Z,24086.28
2022-12-14T07:45:27.467Z,25655.16
2022-12-14T07:46:32.346Z,26281.00
2022-12-14T07:47:35.148Z,27537.13
2022-12-14T07:48:38.510Z,27849.66
2022-12-14T07:49:41.153Z,29105.00
2022-12-14T07:50:43.809Z,30045.59
2022-12-14T07:51:46.676Z,30987.63
2022-12-14T07:52:49.198Z,31615.84
2022-12-14T07:53:52.440Z,31615.84
2022-12-14T07:54:54.960Z,32243.59
2022-12-14T07:56:02.407Z,31616.34
2022-12-14T07:57:04.926Z,32245.09
2022-12-14T07:58:07.564Z,32245.84
2022-12-14T07:59:15.252Z,31931.69
2022-12-14T08:00:18.489Z,32872.91
2022-12-14T08:01:23.984Z,32873.41
2022-12-14T08:02:26.876Z,33815.69
2022-12-14T08:03:29.947Z,34444.34
2022-12-14T08:04:34.737Z,34444.09
2022-12-14T08:05:40.580Z,34759.38
2022-12-14T08:06:43.818Z,34761.28
2022-12-14T08:07:46.733Z,34760.72
2022-12-14T08:08:49.581Z,34761.81
2022-12-14T08:09:52.465Z,34762.34
2022-12-14T08:10:55.344Z,34762.91
2022-12-14T08:11:58.470Z,34763.97
2022-12-14T08:13:01.482Z,34763.44
2022-12-14T08:14:07.474Z,34135.72
2022-12-14T08:15:10.594Z,34135.19
2022-12-14T08:16:16.625Z,33194.25
2022-12-14T08:17:19.836Z,32880.53
2022-12-14T08:18:23.320Z,32568.06
2022-12-14T08:19:26.569Z,31940.09
2022-12-14T08:20:29.681Z,30999.09
2022-12-14T08:21:33.284Z,30058.09
2022-12-14T08:22:36.405Z,28803.06
2022-12-14T08:23:41.697Z,27547.63
2022-12-14T08:24:49.499Z,25979.81
2022-12-14T08:25:55.376Z,23783.53
2022-12-14T08:26:58.973Z,22528.75
2022-12-14T08:28:02.340Z,20020.72
2022-12-14T08:29:05.823Z,18138.19
2022-12-14T08:30:09.538Z,16568.88
2022-12-14T08:31:15.337Z,15313.31
2022-12-14T08:32:19.501Z,13744.84
2022-12-14T08:33:23.343Z,13117.25
2022-12-14T08:34:26.585Z,12175.63
2022-12-14T08:35:29.953Z,11234.94
2022-12-14T08:36:35.236Z,10607.69
2022-12-14T08:37:44.152Z,10294.63
2022-12-14T08:38:57.792Z,8411.91
2022-12-14T08:40:00.911Z,5900.69
2022-12-14T08:41:05.600Z,3387.56
2022-12-14T08:42:08.837Z,871.50
2022-12-14T08:43:12.202Z,-1017.69
2022-12-14T08:44:17.719Z,-2909.09
2022-12-14T08:45:21.208Z,-5117.78
2022-12-14T08:46:25.417Z,-7330.94
2022-12-14T08:47:28.766Z,-8915.41
2022-12-14T08:48:31.898Z,-11134.38
2022-12-14T08:49:35.018Z,-13358.72
2022-12-14T08:50:38.132Z,-14950.91
2022-12-14T08:51:41.136Z,-16232.31
2022-12-14T08:52:47.383Z,-16882.06
2022-12-14T08:53:50.196Z,-15942.72
2022-12-14T08:54:52.902Z,-16584.25
2022-12-14T08:55:55.540Z,-17868.84
2022-12-14T08:56:58.063Z,-18515.97
2022-12-14T08:58:00.764Z,-19476.63
2022-12-14T08:59:03.825Z,-20129.94
2022-12-14T09:00:08.916Z,-20143.97
2022-12-14T09:01:16.173Z,-20162.03
2022-12-14T09:02:19.041Z,-20174.41
2022-12-14T09:03:25.553Z,-14130.25
2022-12-14T09:04:28.321Z,-11593.66
2022-12-14T09:05:31.193Z,-11601.41
2022-12-14T09:06:37.095Z,-6501.41
2022-12-14T09:07:39.765Z,-2672.19
2022-12-14T09:08:42.479Z,2766.50
2022-12-14T09:09:45.125Z,34599.00
2022-12-14T09:10:51.843Z,99680.88
2022-12-14T09:11:54.536Z,146228.59
2022-12-14T09:12:59.204Z,146221.38
2022-12-14T09:14:02.648Z,146259.94
2022-12-14T09:15:06.130Z,146314.19
2022-12-14T09:16:12.439Z,146378.09
2022-12-14T09:17:15.175Z,146445.63
2022-12-14T09:18:17.896Z,146554.22
2022-12-14T09:19:20.446Z,146631.47
2022-12-14T09:20:23.058Z,146720.81
2022-12-14T09:21:25.703Z,146781.13
2022-12-14T09:22:28.792Z,127265.38
2022-12-14T09:23:33.337Z,99561.09
2022-12-14T09:24:36.890Z,84460.97
2022-12-14T09:25:39.724Z,70386.88
2022-12-14T09:26:42.413Z,147072.19
2022-12-14T09:27:49.493Z,146891.03
2022-12-14T09:28:54.774Z,146922.44
2022-12-14T09:29:57.302Z,147071.00
2022-12-14T09:31:02.349Z,147168.94
2022-12-14T09:32:05.402Z,124604.00
2022-12-14T09:33:08.101Z,94510.13
2022-12-14T09:34:10.986Z,143514.94
2022-12-14T09:35:13.629Z,147378.13
2022-12-14T09:36:18.432Z,147288.63
2022-12-14T09:37:21.061Z,147310.41
2022-12-14T09:38:23.580Z,147206.41
2022-12-14T09:39:26.223Z,147156.88
2022-12-14T09:40:31.744Z,147147.22
2022-12-14T09:41:34.324Z,147242.72
2022-12-14T09:43:01.624Z,147332.16
2022-12-14T09:44:23.471Z,147295.88
2022-12-14T09:45:32.567Z,147199.16
2022-12-14T09:47:16.267Z,147219.72
2022-12-14T09:48:24.550Z,147158.06
2022-12-14T09:49:28.996Z,147216.09
2022-12-14T09:50:32.232Z,147407.16
2022-12-14T09:51:37.084Z,147519.66
2022-12-14T09:52:45.078Z,147634.69
2022-12-14T09:53:51.215Z,147735.16
2022-12-14T09:54:55.155Z,147839.28
2022-12-14T09:55:59.121Z,147922.81
2022-12-14T09:57:07.280Z,147996.78
2022-12-14T09:58:20.609Z,147857.41
2022-12-14T09:59:28.289Z,147917.97
2022-12-14T10:00:49.695Z,147888.91
2022-12-14T10:02:33.094Z,147922.81
2022-12-14T10:03:50.124Z,147915.56
2022-12-14T10:05:35.383Z,147961.66
2022-12-14T10:06:47.862Z,147855.00
2022-12-14T10:08:08.499Z,148002.84
2022-12-14T10:09:38.743Z,148133.72
2022-12-14T10:10:50.505Z,148241.59
2022-12-14T10:12:14.522Z,148385.97
2022-12-14T10:13:33.203Z,148499.97
2022-12-14T10:14:54.709Z,148567.97
2022-12-14T10:16:13.954Z,148640.78
2022-12-14T10:17:22.912Z,148560.69
2022-12-14T10:19:03.606Z,148615.31
2022-12-14T10:20:18.219Z,148667.50
2022-12-14T10:21:24.238Z,148758.53
2022-12-14T10:22:34.921Z,148872.72
2022-12-14T10:23:40.683Z,148949.25
2022-12-14T10:24:48.853Z,149016.06
2022-12-14T10:25:58.091Z,149116.97
2022-12-14T10:27:02.167Z,149076.84
2022-12-14T10:28:12.822Z,149142.50
2022-12-14T10:29:19.690Z,149197.16
2022-12-14T10:30:22.939Z,149187.47
2022-12-14T10:31:50.110Z,149272.56
2022-12-14T10:33:03.739Z,149346.78
2022-12-14T10:34:19.612Z,149088.97
2022-12-14T10:35:50.542Z,148870.28
2022-12-14T10:36:55.386Z,148614.13
2022-12-14T10:38:07.226Z,148691.78
2022-12-14T10:39:27.032Z,148638.34
2022-12-14T10:40:34.709Z,148675.97
2022-12-14T10:41:59.433Z,148730.63
2022-12-14T10:43:35.194Z,148554.59
2022-12-14T10:45:04.378Z,148364.13
2022-12-14T10:46:29.543Z,148254.97
2022-12-14T10:47:38.084Z,148258.63
2022-12-14T10:49:13.006Z,148237.97
2022-12-14T10:50:38.091Z,148240.38
2022-12-14T10:52:04.623Z,148450.25
2022-12-14T10:53:20.219Z,148521.84
2022-12-14T10:54:27.415Z,148628.66
2022-12-14T10:55:35.617Z,148759.75
2022-12-14T10:56:42.837Z,148909.19
2022-12-14T10:57:46.259Z,148996.63
2022-12-14T10:59:37.003Z,149007.59
2022-12-14T11:00:42.238Z,149163.13
2022-12-14T11:01:48.159Z,149262.81
2022-12-14T11:02:54.971Z,149391.75
2022-12-14T11:03:57.844Z,149293.22
2022-12-14T11:05:03.918Z,149424.59
2022-12-14T11:06:17.279Z,149476.91
2022-12-14T11:07:37.322Z,149510.97
2022-12-14T11:08:43.930Z,149627.81
2022-12-14T11:09:52.440Z,149521.88
2022-12-14T11:11:27.679Z,149472.03
2022-12-14T11:12:30.565Z,149389.31
2022-12-14T11:13:33.122Z,149481.75
2022-12-14T11:14:41.615Z,149493.91
2022-12-14T11:15:47.852Z,149384.47
2022-12-14T11:16:50.728Z,149450.13
2022-12-14T11:18:06.067Z,149479.31
2022-12-14T11:19:17.854Z,149396.59
2022-12-14T11:20:21.007Z,149191.09
2022-12-14T11:21:30.370Z,149261.59
2022-12-14T11:22:46.569Z,149354.06
2022-12-14T11:23:55.095Z,149469.63
2022-12-14T11:24:58.212Z,149333.41
2022-12-14T11:26:09.774Z,149420.94
2022-12-14T11:27:15.258Z,149453.78
2022-12-14T11:28:36.924Z,149545.03
2022-12-14T11:29:44.776Z,149379.59
2022-12-14T11:31:20.992Z,149338.28
2022-12-14T11:32:25.586Z,149356.47
2022-12-14T11:33:50.273Z,149492.69
2022-12-14T11:34:56.777Z,149579.13
2022-12-14T11:35:59.661Z,149588.84
2022-12-14T11:37:21.158Z,149574.28
2022-12-14T11:38:26.902Z,149569.41
2022-12-14T11:39:30.154Z,149558.38
2022-12-14T11:40:36.748Z,149489.03
2022-12-14T11:41:42.624Z,149530.44
2022-12-14T11:43:01.827Z,149493.91
2022-12-14T11:44:21.647Z,149552.31
2022-12-14T11:45:27.156Z,149598.63
2022-12-14T11:46:47.542Z,149558.38
2022-12-14T11:48:10.001Z,149635.13
2022-12-14T11:49:34.480Z,149803.13
2022-12-14T11:50:37.356Z,149905.38
2022-12-14T11:52:09.390Z,149884.66
2022-12-14T11:53:14.916Z,149973.56
2022-12-14T11:54:17.768Z,149944.34
2022-12-14T11:55:27.150Z,150029.66
2022-12-14T11:56:30.036Z,150028.44
2022-12-14T11:57:37.007Z,149829.91
2022-12-14T11:58:48.999Z,149541.38
2022-12-14T12:00:05.681Z,149389.31
2022-12-14T12:01:22.780Z,149649.69
2022-12-14T12:02:30.477Z,149683.78
2022-12-14T12:03:44.616Z,149708.13
2022-12-14T12:04:54.346Z,149807.97
2022-12-14T12:06:08.092Z,149837.22
2022-12-14T12:07:28.373Z,149502.47
2022-12-14T12:08:35.589Z,149720.28
2022-12-14T12:09:41.700Z,149890.78
2022-12-14T12:10:49.867Z,149958.97
2022-12-14T12:11:53.459Z,150068.63
2022-12-14T12:13:00.313Z,150057.69
2022-12-14T12:14:35.624Z,149993.13
2022-12-14T12:15:50.006Z,149980.88
2022-12-14T12:16:53.469Z,149890.78
2022-12-14T12:18:01.396Z,149990.69
2022-12-14T12:19:15.806Z,150019.88
2022-12-14T12:20:28.643Z,149937.03
2022-12-14T12:21:35.595Z,150022.38
2022-12-14T12:22:44.359Z,150112.47
2022-12-14T12:24:23.841Z,150222.22
2022-12-14T12:25:36.910Z,150144.16
2022-12-14T12:26:56.848Z,150129.56
2022-12-14T12:28:10.647Z,150238.03
2022-12-14T12:29:13.888Z,150195.38
2022-12-14T12:30:30.092Z,150130.75
2022-12-14T12:31:45.749Z,150175.81
2022-12-14T12:32:53.135Z,150222.22
2022-12-14T12:34:01.178Z,150228.28
2022-12-14T12:35:22.059Z,150292.88
2022-12-14T12:36:25.420Z,150309.91
2022-12-14T12:37:52.063Z,150253.91
2022-12-14T12:39:16.305Z,150251.47
2022-12-14T12:40:21.825Z,150229.50
2022-12-14T12:41:42.468Z,150127.13
2022-12-14T12:42:48.470Z,149827.47
2022-12-14T12:44:01.673Z,149474.47
2022-12-14T12:45:22.556Z,149568.19
2022-12-14T12:46:31.758Z,149574.28
2022-12-14T12:47:47.845Z,149491.47
2022-12-14T12:49:01.441Z,149551.09
2022-12-14T12:50:14.169Z,149585.22
2022-12-14T12:51:25.445Z,149678.91
2022-12-14T12:53:14.649Z,149631.47
2022-12-14T12:54:47.412Z,149464.75
2022-12-14T12:56:02.412Z,149395.38
2022-12-14T12:57:08.296Z,149240.97
2022-12-14T12:58:25.096Z,149232.41
2022-12-14T12:59:30.741Z,149093.88
2022-12-14T13:00:34.704Z,148983.28
2022-12-14T13:01:45.393Z,148948.06
2022-12-14T13:03:02.298Z,148935.88
2022-12-14T13:04:15.802Z,148955.31
2022-12-14T13:05:46.136Z,149037.97
2022-12-14T13:06:53.551Z,148884.88
2022-12-14T13:08:03.635Z,148864.22
2022-12-14T13:09:35.437Z,148954.13
2022-12-14T13:11:16.797Z,148983.28
2022-12-14T13:12:10.521Z,148854.53
2022-12-14T13:13:22.523Z,148954.13
2022-12-14T13:14:49.865Z,149014.88
2022-12-14T13:15:56.796Z,149027.00
2022-12-14T13:17:04.047Z,149023.34
2022-12-14T13:18:56.030Z,149007.59
2022-12-14T13:19:54.725Z,148776.78
2022-12-14T13:20:57.931Z,148723.34
2022-12-14T13:22:06.408Z,148678.44
2022-12-14T13:23:36.579Z,148592.25
2022-12-14T13:24:35.251Z,148541.22
2022-12-14T13:25:56.011Z,148456.31
2022-12-14T13:27:26.344Z,148543.66
2022-12-14T13:28:37.866Z,148594.69
2022-12-14T13:30:01.664Z,148682.06
2022-12-14T13:31:30.870Z,148594.69
2022-12-14T13:32:37.687Z,148525.47